Butts AAF (Fort Carson) Air Field Fort Carson US
ICAO: KFCS
IATA: FCS
Category: Medium
Scheduled Services: No

Elevation: 5838 ft
TransAlt. 18000 ft.

Airport Communications:
SPRINGS APP/DEP:124
FLT FLW:38.35
ATIS:108.8
PMSV METRO:44.1
PTD/OPS:141.15
TWR:125.5

KFCS Zoom In..

If you have problems with the map follow the link
https://www.worldairports.se/pages/airport.php?
ICAO=KFCS

Runways:

(A) RW 04 length 2307 ft width 75 ft
---- / hdg 39

(B) RW 13 length 4572 ft width 75 ft
---- / hdg 126

(C) RW 22 length 2307 ft width 75 ft
---- / hdg 219

(D) RW 31 length 4572 ft width 75 ft
---- / hdg 306

Location; KFCS
Day. 12 / Time. 08.58 Zulu
* Altimeter: 30.00
* Temperature: 03° c. 37.4°f.
* Wind from: 190° Speed 03 kn.
Dewpoint: -13° c.
Visibility: 10 Statute Miles.
Clouds: Clear (automated report).

KFCS 120858Z AUTO 19003KT 10SM CLR 03/M13 A3000 RMK AO2 SLP166 T00271132 53006 $


Wind From 190°
Speed 03 kn.

 
 
jpsmedia worldairports.se 2019   terms of use